| time (UTC) | temp F | wind direction | speed MPH | gust MPH | rain 1hr in | rain 24hr in | rain mn in | humidity % | barometer mb |
| 20260507131558 | 66 | 80 | 0.0 | 2.0 | 0.00 | 0.36 | 0.35 | 99 | 1004.2 |
| 20260507130530 | 66 | 82 | 0.0 | 0.0 | 0.00 | 0.36 | 0.35 | 99 | 1004.3 |
| 20260507125503 | 65 | 57 | 0.0 | 1.0 | 0.00 | 0.36 | 0.35 | 99 | 1004.3 |
| 20260507124457 | 65 | 10 | 0.0 | 0.0 | 0.00 | 0.36 | 0.35 | 99 | 1004.3 |
| 20260507123426 | 65 | 73 | 0.0 | 0.0 | 0.00 | 0.36 | 0.35 | 99 | 1004.4 |
| 20260507121316 | 65 | 184 | 0.0 | 0.0 | 0.07 | 0.36 | 0.35 | 99 | 1004.5 |
| 20260507120320 | 65 | 184 | 0.0 | 0.0 | 0.12 | 0.34 | 0.34 | 99 | 1004.5 |
| 20260507114129 | 65 | 222 | 0.0 | 0.0 | 0.18 | 0.29 | 0.29 | 99 | 1004.9 |
| 20260507113150 | 65 | 222 | 0.0 | 0.0 | 0.23 | 0.26 | 0.26 | 99 | 1004.9 |
| 20260507112154 | 65 | 65 | 0.0 | 0.0 | 0.28 | 0.22 | 0.22 | 98 | 1004.9 |
| 20260507105959 | 65 | 94 | 0.0 | 0.0 | 0.16 | 0.18 | 0.17 | 98 | 1004.4 |
| 20260507104927 | 65 | 94 | 0.0 | 0.0 | 0.15 | 0.14 | 0.14 | 98 | 1004.3 |
| 20260507103936 | 65 | 94 | 0.0 | 0.0 | 0.00 | 0.12 | 0.11 | 98 | 1004.5 |
| 20260507102929 | 64 | 94 | 0.0 | 0.0 | 0.00 | 0.11 | 0.11 | 98 | 1004.5 |
| 20260507100856 | 64 | 94 | 0.0 | 0.0 | 0.00 | 0.11 | 0.11 | 98 | 1004.4 |
| 20260507095842 | 64 | 94 | 0.0 | 0.0 | 0.00 | 0.11 | 0.11 | 98 | 1004.4 |
| 20260507092544 | 64 | 94 | 0.0 | 0.0 | 0.00 | 0.11 | 0.11 | 98 | 1004.4 |
| 20260507091509 | 65 | 65 | 0.0 | 2.0 | 0.00 | 0.11 | 0.11 | 98 | 1004.4 |
| 20260507090450 | 65 | 62 | 0.0 | 3.0 | 0.00 | 0.11 | 0.11 | 98 | 1004.8 |
| 20260507085430 | 65 | 125 | 0.0 | 3.0 | 0.03 | 0.11 | 0.10 | 98 | 1004.6 |
| 20260507084417 | 65 | 105 | 0.0 | 3.0 | 0.10 | 0.10 | 0.10 | 98 | 1004.6 |
| 20260507083407 | 65 | 84 | 0.0 | 2.0 | 0.00 | 0.09 | 0.08 | 98 | 1005.1 |
| 20260507082407 | 65 | 51 | 0.0 | 1.0 | 0.00 | 0.09 | 0.08 | 98 | 1004.9 |
| 20260507081419 | 64 | 105 | 0.0 | 1.0 | 0.00 | 0.09 | 0.08 | 98 | 1004.9 |
| 20260507080411 | 65 | 105 | 0.0 | 1.0 | 0.00 | 0.09 | 0.08 | 98 | 1005.2 |
| 20260507074240 | 65 | 142 | 0.0 | 0.0 | 0.00 | 0.09 | 0.08 | 97 | 1005.4 |
| 20260507073241 | 65 | 142 | 0.0 | 1.0 | 0.00 | 0.09 | 0.08 | 97 | 1005.4 |
| 20260507072251 | 65 | 289 | 0.0 | 0.0 | 0.00 | 0.08 | 0.07 | 97 | 1005.4 |
| 20260507071304 | 65 | 289 | 0.0 | 1.0 | 0.00 | 0.08 | 0.07 | 97 | 1005.4 |
| 20260507065215 | 65 | 175 | 0.0 | 3.0 | 0.00 | 0.08 | 0.07 | 97 | 1006.1 |
| 20260507064234 | 65 | 127 | 0.0 | 2.0 | 0.00 | 0.08 | 0.07 | 97 | 1006.1 |
| 20260507063252 | 65 | 6 | 0.0 | 1.0 | 0.00 | 0.08 | 0.07 | 97 | 1006.1 |
| 20260507062221 | 65 | 71 | 0.0 | 0.0 | 0.00 | 0.08 | 0.07 | 97 | 1006.0 |
| 20260507061202 | 65 | 79 | 0.0 | 1.0 | 0.00 | 0.08 | 0.07 | 97 | 1006.0 |
| 20260507055038 | 65 | 25 | 0.0 | 0.0 | 0.03 | 0.08 | 0.07 | 96 | 1006.1 |
| 20260507054040 | 66 | 25 | 0.0 | 2.0 | 0.08 | 0.08 | 0.07 | 96 | 1006.3 |
| 20260507051909 | 66 | 58 | 0.0 | 0.0 | 0.03 | 0.06 | 0.05 | 95 | 1006.7 |
| 20260507050845 | 66 | 140 | 0.0 | 1.0 | 0.07 | 0.06 | 0.05 | 95 | 1006.0 |
| 20260507045840 | 66 | 192 | 0.0 | 8.0 | 0.15 | 0.04 | 0.04 | 94 | 1006.8 |
| 20260507044849 | 67 | 338 | 1.0 | 8.0 | 0.09 | 0.03 | 0.02 | 94 | 1006.8 |
| 20260507043814 | 67 | 18 | 0.0 | 4.0 | 0.00 | 0.01 | 0.00 | 94 | 1007.9 |
| 20260507042834 | 67 | 112 | 0.0 | 1.0 | 0.00 | 0.01 | 0.00 | 94 | 1007.7 |
| 20260507041815 | 67 | 32 | 0.0 | 2.0 | 0.00 | 0.00 | 0.00 | 93 | 1007.7 |
| 20260507040833 | 67 | 195 | 0.0 | 0.0 | 0.00 | 0.00 | 0.00 | 93 | 1007.1 |
| 20260507035827 | 67 | 161 | 0.0 | 0.0 | 0.00 | 0.00 | 0.00 | 92 | 1006.5 |
| 20260507034756 | 67 | 64 | 0.0 | 1.0 | 0.00 | 0.00 | 0.00 | 91 | 1006.5 |
| 20260507033743 | 68 | 65 | 0.0 | 0.0 | 0.00 | 0.00 | 0.00 | 91 | 1006.9 |
| 20260507032714 | 68 | 81 | 0.0 | 0.0 | 0.00 | 0.00 | 0.00 | 90 | 1006.9 |
| 20260507031705 | 68 | 1 | 0.0 | 0.0 | 0.00 | 0.00 | 0.00 | 89 | 1006.9 |
| 20260507030720 | 69 | 278 | 0.0 | 1.0 | 0.00 | 0.00 | 0.00 | 89 | 1006.7 |
| 20260507025651 | 68 | 6 | 0.0 | 1.0 | 0.00 | 0.00 | 0.00 | 89 | 1006.4 |
| 20260507024701 | 68 | 82 | 0.0 | 1.0 | 0.00 | 0.00 | 0.00 | 89 | 1006.4 |
| 20260507023659 | 68 | 49 | 0.0 | 0.0 | 0.00 | 0.00 | 0.00 | 90 | 1006.4 |
| 20260507022644 | 68 | 115 | 0.0 | 1.0 | 0.00 | 0.00 | 0.00 | 90 | 1006.1 |
| 20260507021618 | 68 | 51 | 0.0 | 1.0 | 0.00 | 0.00 | 0.00 | 90 | 1006.1 |
| 20260507020636 | 68 | 51 | 0.0 | 0.0 | 0.00 | 0.00 | 0.00 | 90 | 1006.4 |
| 20260507015646 | 68 | 51 | 0.0 | 0.0 | 0.00 | 0.00 | 0.00 | 90 | 1006.4 |
| 20260507014632 | 68 | 51 | 0.0 | 0.0 | 0.00 | 0.00 | 0.00 | 90 | 1006.4 |
| 20260507011436 | 68 | 8 | 0.0 | 0.0 | 0.00 | 0.00 | 0.00 | 89 | 1006.3 |
| 20260507005330 | 68 | 8 | 0.0 | 0.0 | 0.00 | 0.00 | 0.00 | 88 | 1006.1 |
| 20260507003147 | 69 | 65 | 0.0 | 0.0 | 0.00 | 0.00 | 0.00 | 86 | 1006.3 |
| 20260507002202 | 70 | 65 | 0.0 | 0.0 | 0.00 | 0.00 | 0.00 | 85 | 1006.4 |
| 20260507001139 | 70 | 65 | 0.0 | 0.0 | 0.00 | 0.00 | 0.00 | 84 | 1006.4 |
| 20260507000128 | 70 | 359 | 0.0 | 0.0 | 0.00 | 0.00 | 0.00 | 83 | 1006.4 |
| 20260506235053 | 71 | 150 | 0.0 | 0.0 | 0.00 | 0.00 | 0.00 | 82 | 1006.5 |
| 20260506234045 | 72 | 150 | 0.0 | 0.0 | 0.00 | 0.00 | 0.00 | 82 | 1006.3 |
| 20260506233058 | 72 | 153 | 0.0 | 3.0 | 0.00 | 0.00 | 0.00 | 80 | 1006.3 |
| 20260506232024 | 72 | 137 | 0.0 | 1.0 | 0.00 | 0.00 | 0.00 | 80 | 1006.5 |
| 20260506231018 | 73 | 212 | 0.0 | 4.0 | 0.00 | 0.00 | 0.00 | 79 | 1006.4 |
| 20260506230036 | 73 | 109 | 1.0 | 4.0 | 0.00 | 0.00 | 0.00 | 77 | 1006.4 |
| 20260506225023 | 74 | 57 | 1.0 | 4.0 | 0.00 | 0.00 | 0.00 | 76 | 1006.3 |
| 20260506224001 | 75 | 118 | 1.0 | 5.0 | 0.00 | 0.00 | 0.00 | 75 | 1006.0 |
| 20260506223019 | 75 | 22 | 1.0 | 6.0 | 0.00 | 0.00 | 0.00 | 75 | 1006.0 |
| 20260506222018 | 75 | 343 | 1.0 | 6.0 | 0.00 | 0.00 | 0.00 | 76 | 1005.9 |
| 20260506215906 | 74 | 269 | 1.0 | 8.0 | 0.00 | 0.00 | 0.00 | 79 | 1006.0 |
| 20260506214835 | 73 | 129 | 2.0 | 5.0 | 0.00 | 0.00 | 0.00 | 79 | 1006.0 |
| 20260506213824 | 73 | 22 | 1.0 | 5.0 | 0.00 | 0.00 | 0.00 | 80 | 1006.1 |
| 20260506212829 | 73 | 97 | 1.0 | 6.0 | 0.00 | 0.00 | 0.00 | 81 | 1006.1 |
| 20260506211800 | 73 | 13 | 2.0 | 8.0 | 0.00 | 0.00 | 0.00 | 81 | 1006.1 |
| 20260506210738 | 73 | 52 | 1.0 | 9.0 | 0.00 | 0.00 | 0.00 | 82 | 1006.0 |
| 20260506205705 | 72 | 34 | 1.0 | 9.0 | 0.00 | 0.00 | 0.00 | 86 | 1005.9 |
| 20260506204712 | 71 | 131 | 1.0 | 5.0 | 0.00 | 0.00 | 0.00 | 87 | 1005.9 |
| 20260506202622 | 70 | 68 | 2.0 | 9.0 | 0.00 | 0.00 | 0.00 | 88 | 1006.0 |
| 20260506201642 | 70 | 75 | 2.0 | 8.0 | 0.00 | 0.00 | 0.00 | 88 | 1006.0 |
| 20260506200700 | 69 | 109 | 1.0 | 8.0 | 0.00 | 0.00 | 0.00 | 90 | 1006.1 |
| 20260506195711 | 68 | 171 | 1.0 | 5.0 | 0.00 | 0.00 | 0.00 | 91 | 1006.0 |
| 20260506194652 | 68 | 160 | 1.0 | 5.0 | 0.00 | 0.00 | 0.00 | 91 | 1006.0 |
| 20260506191349 | 69 | 110 | 1.0 | 6.0 | 0.00 | 0.00 | 0.00 | 85 | 1008.3 |
| 20260506190407 | 70 | 53 | 0.0 | 5.0 | 0.00 | 0.00 | 0.00 | 83 | 1008.3 |
| 20260506185425 | 71 | 193 | 0.0 | 5.0 | 0.00 | 0.00 | 0.00 | 81 | 1008.2 |
| 20260506184419 | 72 | 150 | 1.0 | 6.0 | 0.00 | 0.00 | 0.00 | 77 | 1008.2 |
| 20260506183416 | 73 | 109 | 1.0 | 9.0 | 0.00 | 0.00 | 0.00 | 73 | 1008.1 |
| 20260506182403 | 74 | 160 | 1.0 | 9.0 | 0.00 | 0.00 | 0.00 | 73 | 1008.2 |
| 20260506181331 | 73 | 195 | 1.0 | 4.0 | 0.00 | 0.00 | 0.00 | 74 | 1008.1 |
| 20260506180306 | 73 | 234 | 1.0 | 6.0 | 0.00 | 0.00 | 0.00 | 74 | 1008.1 |
| 20260506175311 | 73 | 160 | 1.0 | 6.0 | 0.00 | 0.00 | 0.00 | 74 | 1008.1 |
| 20260506174301 | 72 | 323 | 2.0 | 6.0 | 0.00 | 0.00 | 0.00 | 76 | 1008.3 |
| 20260506171013 | 71 | 145 | 0.0 | 4.0 | 0.00 | 0.00 | 0.00 | 79 | 1008.6 |
| 20260506170007 | 70 | 23 | 1.0 | 6.0 | 0.00 | 0.00 | 0.00 | 76 | 1008.6 |
| 20260506164955 | 71 | 45 | 0.0 | 6.0 | 0.00 | 0.00 | 0.00 | 74 | 1008.8 |
| 20260506163959 | 71 | 117 | 1.0 | 6.0 | 0.00 | 0.00 | 0.00 | 72 | 1008.8 |
| 20260506162935 | 71 | 171 | 2.0 | 6.0 | 0.00 | 0.00 | 0.00 | 70 | 1008.8 |
| 20260506161941 | 71 | 37 | 1.0 | 7.0 | 0.00 | 0.00 | 0.00 | 71 | 1008.8 |
| 20260506161003 | 71 | 67 | 1.0 | 9.0 | 0.00 | 0.00 | 0.00 | 71 | 1008.8 |
| 20260506154845 | 70 | 105 | 0.0 | 5.0 | 0.00 | 0.00 | 0.00 | 73 | 1008.6 |
| 20260506153909 | 69 | 115 | 0.0 | 4.0 | 0.00 | 0.00 | 0.00 | 73 | 1008.9 |
| 20260506152918 | 69 | 152 | 1.0 | 6.0 | 0.00 | 0.00 | 0.00 | 73 | 1008.9 |
| 20260506151846 | 69 | 103 | 1.0 | 6.0 | 0.00 | 0.00 | 0.00 | 72 | 1008.5 |
| 20260506150905 | 69 | 1 | 1.0 | 5.0 | 0.00 | 0.00 | 0.00 | 73 | 1008.5 |
| 20260506145845 | 69 | 80 | 2.0 | 11.0 | 0.00 | 0.00 | 0.00 | 72 | 1008.2 |
| 20260506144828 | 69 | 77 | 2.0 | 10.0 | 0.00 | 0.00 | 0.00 | 73 | 1008.2 |
| 20260506143838 | 68 | 68 | 1.0 | 8.0 | 0.00 | 0.00 | 0.00 | 74 | 1008.6 |
| 20260506141709 | 67 | 32 | 1.0 | 8.0 | 0.00 | 0.00 | 0.00 | 75 | 1008.7 |
| 20260506140702 | 67 | 160 | 1.0 | 8.0 | 0.00 | 0.00 | 0.00 | 76 | 1008.6 |
| 20260506135718 | 66 | 89 | 1.0 | 3.0 | 0.00 | 0.00 | 0.00 | 76 | 1009.0 |
| 20260506134657 | 65 | 172 | 1.0 | 5.0 | 0.00 | 0.00 | 0.00 | 77 | 1009.0 |
| 20260506133630 | 65 | 127 | 1.0 | 6.0 | 0.00 | 0.00 | 0.00 | 78 | 1009.1 |